sensor_id;sensor_type;location;lat;lon;timestamp;temperature;humidity
18597;DHT22;9428;50.950;6.912;2023-05-23T00:01:32;16.60;99.90
18597;DHT22;9428;50.950;6.912;2023-05-23T00:04:22;16.60;99.90
18597;DHT22;9428;50.950;6.912;2023-05-23T00:07:11;16.40;99.90
18597;DHT22;9428;50.950;6.912;2023-05-23T00:09:58;16.40;99.90
18597;DHT22;9428;50.950;6.912;2023-05-23T00:12:46;16.50;99.90
18597;DHT22;9428;50.950;6.912;2023-05-23T00:15:34;16.40;99.90
18597;DHT22;9428;50.950;6.912;2023-05-23T00:18:22;16.20;99.90
18597;DHT22;9428;50.950;6.912;2023-05-23T00:21:09;16.30;99.90
18597;DHT22;9428;50.950;6.912;2023-05-23T00:23:58;16.30;99.90
18597;DHT22;9428;50.950;6.912;2023-05-23T00:26:47;16.40;99.90
18597;DHT22;9428;50.950;6.912;2023-05-23T00:29:34;16.30;99.90
18597;DHT22;9428;50.950;6.912;2023-05-23T00:32:23;16.30;99.90
18597;DHT22;9428;50.950;6.912;2023-05-23T00:35:10;16.20;99.90
18597;DHT22;9428;50.950;6.912;2023-05-23T00:37:57;16.20;99.90
18597;DHT22;9428;50.950;6.912;2023-05-23T00:40:44;16.30;99.90
18597;DHT22;9428;50.950;6.912;2023-05-23T00:43:31;16.30;99.90
18597;DHT22;9428;50.950;6.912;2023-05-23T00:46:19;16.20;99.90
18597;DHT22;9428;50.950;6.912;2023-05-23T00:49:07;16.30;99.90
18597;DHT22;9428;50.950;6.912;2023-05-23T00:51:55;16.30;99.90
18597;DHT22;9428;50.950;6.912;2023-05-23T00:54:42;16.10;99.90
18597;DHT22;9428;50.950;6.912;2023-05-23T00:57:29;16.40;99.90
18597;DHT22;9428;50.950;6.912;2023-05-23T01:00:19;16.30;99.90
18597;DHT22;9428;50.950;6.912;2023-05-23T01:03:06;16.30;99.90
18597;DHT22;9428;50.950;6.912;2023-05-23T01:05:55;16.40;99.90
18597;DHT22;9428;50.950;6.912;2023-05-23T01:08:42;16.10;99.90
18597;DHT22;9428;50.950;6.912;2023-05-23T01:11:35;16.40;99.90
18597;DHT22;9428;50.950;6.912;2023-05-23T01:14:31;16.40;99.90
18597;DHT22;9428;50.950;6.912;2023-05-23T01:17:22;16.40;99.90
18597;DHT22;9428;50.950;6.912;2023-05-23T01:20:16;16.80;99.90
18597;DHT22;9428;50.950;6.912;2023-05-23T01:23:23;16.40;99.90
18597;DHT22;9428;50.950;6.912;2023-05-23T01:26:21;16.50;99.90
18597;DHT22;9428;50.950;6.912;2023-05-23T01:29:21;16.30;99.90
18597;DHT22;9428;50.950;6.912;2023-05-23T01:32:11;16.40;99.90
18597;DHT22;9428;50.950;6.912;2023-05-23T01:35:00;16.40;99.90
18597;DHT22;9428;50.950;6.912;2023-05-23T01:37:47;16.40;99.90
18597;DHT22;9428;50.950;6.912;2023-05-23T01:40:35;16.50;99.90
18597;DHT22;9428;50.950;6.912;2023-05-23T01:43:23;16.50;99.90
18597;DHT22;9428;50.950;6.912;2023-05-23T01:46:13;16.30;99.90
18597;DHT22;9428;50.950;6.912;2023-05-23T01:49:02;16.30;99.90
18597;DHT22;9428;50.950;6.912;2023-05-23T01:51:51;17.00;99.90
18597;DHT22;9428;50.950;6.912;2023-05-23T01:54:39;16.30;99.90
18597;DHT22;9428;50.950;6.912;2023-05-23T01:57:28;16.20;99.90
18597;DHT22;9428;50.950;6.912;2023-05-23T02:00:17;16.30;99.90
18597;DHT22;9428;50.950;6.912;2023-05-23T02:03:06;16.20;99.90
18597;DHT22;9428;50.950;6.912;2023-05-23T02:05:53;16.10;99.90
18597;DHT22;9428;50.950;6.912;2023-05-23T02:08:40;16.10;99.90
18597;DHT22;9428;50.950;6.912;2023-05-23T02:11:27;16.20;99.90
18597;DHT22;9428;50.950;6.912;2023-05-23T02:14:15;16.10;99.90
18597;DHT22;9428;50.950;6.912;2023-05-23T02:17:03;16.10;99.90
18597;DHT22;9428;50.950;6.912;2023-05-23T02:19:52;16.20;99.90
18597;DHT22;9428;50.950;6.912;2023-05-23T02:22:39;16.20;99.90
18597;DHT22;9428;50.950;6.912;2023-05-23T02:25:26;16.20;99.90
18597;DHT22;9428;50.950;6.912;2023-05-23T02:28:13;15.90;99.90
18597;DHT22;9428;50.950;6.912;2023-05-23T02:31:01;16.20;99.90
18597;DHT22;9428;50.950;6.912;2023-05-23T02:33:48;16.20;99.90
18597;DHT22;9428;50.950;6.912;2023-05-23T02:36:37;16.20;99.90
18597;DHT22;9428;50.950;6.912;2023-05-23T02:39:24;16.20;99.90
18597;DHT22;9428;50.950;6.912;2023-05-23T02:42:11;16.20;99.90
18597;DHT22;9428;50.950;6.912;2023-05-23T02:44:58;16.50;99.90
18597;DHT22;9428;50.950;6.912;2023-05-23T02:47:46;16.30;99.90
18597;DHT22;9428;50.950;6.912;2023-05-23T02:50:33;16.10;99.90
18597;DHT22;9428;50.950;6.912;2023-05-23T02:53:22;16.20;99.90
18597;DHT22;9428;50.950;6.912;2023-05-23T02:56:09;16.10;99.90
18597;DHT22;9428;50.950;6.912;2023-05-23T02:58:58;16.20;99.90
18597;DHT22;9428;50.950;6.912;2023-05-23T03:01:45;16.10;99.90
18597;DHT22;9428;50.950;6.912;2023-05-23T03:04:32;16.10;99.90
18597;DHT22;9428;50.950;6.912;2023-05-23T03:07:20;16.20;99.90
18597;DHT22;9428;50.950;6.912;2023-05-23T03:10:10;16.10;99.90
18597;DHT22;9428;50.950;6.912;2023-05-23T03:12:57;16.10;99.90
18597;DHT22;9428;50.950;6.912;2023-05-23T03:15:44;16.10;99.90
18597;DHT22;9428;50.950;6.912;2023-05-23T03:18:32;16.10;99.90
18597;DHT22;9428;50.950;6.912;2023-05-23T03:21:19;16.10;99.90
18597;DHT22;9428;50.950;6.912;2023-05-23T03:24:06;16.00;99.90
18597;DHT22;9428;50.950;6.912;2023-05-23T03:26:54;15.90;99.90
18597;DHT22;9428;50.950;6.912;2023-05-23T03:29:42;16.10;99.90
18597;DHT22;9428;50.950;6.912;2023-05-23T03:32:29;16.00;99.90
18597;DHT22;9428;50.950;6.912;2023-05-23T03:35:16;15.90;99.90
18597;DHT22;9428;50.950;6.912;2023-05-23T03:38:03;16.00;99.90
18597;DHT22;9428;50.950;6.912;2023-05-23T03:40:52;15.90;99.90
18597;DHT22;9428;50.950;6.912;2023-05-23T03:43:40;15.80;99.90
18597;DHT22;9428;50.950;6.912;2023-05-23T03:46:27;15.80;99.90
18597;DHT22;9428;50.950;6.912;2023-05-23T03:49:15;15.70;99.90
18597;DHT22;9428;50.950;6.912;2023-05-23T03:52:02;15.80;99.90
18597;DHT22;9428;50.950;6.912;2023-05-23T03:54:50;15.80;99.90
18597;DHT22;9428;50.950;6.912;2023-05-23T03:57:37;15.80;99.90
18597;DHT22;9428;50.950;6.912;2023-05-23T04:00:26;15.80;99.90
18597;DHT22;9428;50.950;6.912;2023-05-23T04:03:13;15.80;99.90
18597;DHT22;9428;50.950;6.912;2023-05-23T04:06:02;15.80;99.90
18597;DHT22;9428;50.950;6.912;2023-05-23T04:08:50;15.70;99.90
18597;DHT22;9428;50.950;6.912;2023-05-23T04:11:37;15.80;99.90
18597;DHT22;9428;50.950;6.912;2023-05-23T04:14:24;15.70;99.90
18597;DHT22;9428;50.950;6.912;2023-05-23T04:17:13;15.80;99.90
18597;DHT22;9428;50.950;6.912;2023-05-23T04:20:00;15.80;99.90
18597;DHT22;9428;50.950;6.912;2023-05-23T04:22:48;15.60;99.90
18597;DHT22;9428;50.950;6.912;2023-05-23T04:25:35;15.70;99.90
18597;DHT22;9428;50.950;6.912;2023-05-23T04:28:25;15.80;99.90
18597;DHT22;9428;50.950;6.912;2023-05-23T04:31:12;15.80;99.90
18597;DHT22;9428;50.950;6.912;2023-05-23T04:34:00;15.70;99.90
18597;DHT22;9428;50.950;6.912;2023-05-23T04:36:48;15.80;99.90
18597;DHT22;9428;50.950;6.912;2023-05-23T04:39:35;15.90;99.90
18597;DHT22;9428;50.950;6.912;2023-05-23T04:42:23;15.80;99.90
18597;DHT22;9428;50.950;6.912;2023-05-23T04:45:10;15.80;99.90
18597;DHT22;9428;50.950;6.912;2023-05-23T04:47:58;15.80;99.90
18597;DHT22;9428;50.950;6.912;2023-05-23T04:50:47;15.70;99.90
18597;DHT22;9428;50.950;6.912;2023-05-23T04:53:36;15.70;99.90
18597;DHT22;9428;50.950;6.912;2023-05-23T04:56:24;15.70;99.90
18597;DHT22;9428;50.950;6.912;2023-05-23T04:59:13;15.70;99.90
18597;DHT22;9428;50.950;6.912;2023-05-23T05:02:00;15.60;99.90
18597;DHT22;9428;50.950;6.912;2023-05-23T05:04:47;15.70;99.90
18597;DHT22;9428;50.950;6.912;2023-05-23T05:07:36;15.70;99.90
18597;DHT22;9428;50.950;6.912;2023-05-23T05:10:23;15.90;99.90
18597;DHT22;9428;50.950;6.912;2023-05-23T05:13:10;15.70;99.90
18597;DHT22;9428;50.950;6.912;2023-05-23T05:15:57;16.20;99.90
18597;DHT22;9428;50.950;6.912;2023-05-23T05:18:44;15.70;99.90
18597;DHT22;9428;50.950;6.912;2023-05-23T05:21:31;15.00;99.90
18597;DHT22;9428;50.950;6.912;2023-05-23T05:24:20;15.70;99.90
18597;DHT22;9428;50.950;6.912;2023-05-23T05:27:07;15.60;99.90
18597;DHT22;9428;50.950;6.912;2023-05-23T05:29:56;15.60;99.90
18597;DHT22;9428;50.950;6.912;2023-05-23T05:32:49;15.60;99.90
18597;DHT22;9428;50.950;6.912;2023-05-23T05:35:36;15.80;99.90
18597;DHT22;9428;50.950;6.912;2023-05-23T05:38:23;15.60;99.90
18597;DHT22;9428;50.950;6.912;2023-05-23T05:41:12;16.00;99.90
18597;DHT22;9428;50.950;6.912;2023-05-23T05:43:59;15.70;99.90
18597;DHT22;9428;50.950;6.912;2023-05-23T05:46:46;15.90;99.90
18597;DHT22;9428;50.950;6.912;2023-05-23T05:49:34;16.10;99.90
18597;DHT22;9428;50.950;6.912;2023-05-23T05:52:21;15.50;99.90
18597;DHT22;9428;50.950;6.912;2023-05-23T05:55:10;15.70;99.90
18597;DHT22;9428;50.950;6.912;2023-05-23T05:57:58;15.50;99.90
18597;DHT22;9428;50.950;6.912;2023-05-23T06:00:47;15.60;99.90
18597;DHT22;9428;50.950;6.912;2023-05-23T06:03:34;15.40;99.90
18597;DHT22;9428;50.950;6.912;2023-05-23T06:06:22;15.30;99.90
18597;DHT22;9428;50.950;6.912;2023-05-23T06:09:09;15.70;99.90
18597;DHT22;9428;50.950;6.912;2023-05-23T06:11:56;15.60;99.90
18597;DHT22;9428;50.950;6.912;2023-05-23T06:14:45;15.50;99.90
18597;DHT22;9428;50.950;6.912;2023-05-23T06:17:32;15.70;99.90
18597;DHT22;9428;50.950;6.912;2023-05-23T06:20:19;15.50;99.90
18597;DHT22;9428;50.950;6.912;2023-05-23T06:23:06;15.60;99.90
18597;DHT22;9428;50.950;6.912;2023-05-23T06:25:54;15.50;99.90
18597;DHT22;9428;50.950;6.912;2023-05-23T06:28:41;15.70;99.90
18597;DHT22;9428;50.950;6.912;2023-05-23T06:31:29;15.70;99.90
18597;DHT22;9428;50.950;6.912;2023-05-23T06:34:16;15.70;99.90
18597;DHT22;9428;50.950;6.912;2023-05-23T06:37:04;15.60;99.90
18597;DHT22;9428;50.950;6.912;2023-05-23T06:39:51;15.40;99.90
18597;DHT22;9428;50.950;6.912;2023-05-23T06:42:38;15.50;99.90
18597;DHT22;9428;50.950;6.912;2023-05-23T06:45:25;15.40;99.90
18597;DHT22;9428;50.950;6.912;2023-05-23T06:48:14;15.50;99.90
18597;DHT22;9428;50.950;6.912;2023-05-23T06:51:02;15.50;99.90
18597;DHT22;9428;50.950;6.912;2023-05-23T06:53:49;15.50;99.90
18597;DHT22;9428;50.950;6.912;2023-05-23T06:56:36;15.50;99.90
18597;DHT22;9428;50.950;6.912;2023-05-23T06:59:23;15.50;99.90
18597;DHT22;9428;50.950;6.912;2023-05-23T07:02:10;15.70;99.90
18597;DHT22;9428;50.950;6.912;2023-05-23T07:04:59;15.80;99.90
18597;DHT22;9428;50.950;6.912;2023-05-23T07:07:46;15.90;99.90
18597;DHT22;9428;50.950;6.912;2023-05-23T07:10:33;15.90;99.90
18597;DHT22;9428;50.950;6.912;2023-05-23T07:13:21;15.90;99.90
18597;DHT22;9428;50.950;6.912;2023-05-23T07:16:08;15.90;99.90
18597;DHT22;9428;50.950;6.912;2023-05-23T07:18:55;15.90;99.90
18597;DHT22;9428;50.950;6.912;2023-05-23T07:21:44;15.90;99.90
18597;DHT22;9428;50.950;6.912;2023-05-23T07:24:31;16.00;99.90
18597;DHT22;9428;50.950;6.912;2023-05-23T07:27:18;15.90;99.90
18597;DHT22;9428;50.950;6.912;2023-05-23T07:30:07;15.80;99.90
18597;DHT22;9428;50.950;6.912;2023-05-23T07:32:55;15.90;99.90
18597;DHT22;9428;50.950;6.912;2023-05-23T07:35:43;15.90;99.90
18597;DHT22;9428;50.950;6.912;2023-05-23T07:38:31;15.70;99.90
18597;DHT22;9428;50.950;6.912;2023-05-23T07:41:18;15.80;99.90
18597;DHT22;9428;50.950;6.912;2023-05-23T07:44:06;15.60;99.90
18597;DHT22;9428;50.950;6.912;2023-05-23T07:46:54;15.70;99.90
18597;DHT22;9428;50.950;6.912;2023-05-23T07:49:41;15.60;99.90
18597;DHT22;9428;50.950;6.912;2023-05-23T07:52:29;15.70;99.90
18597;DHT22;9428;50.950;6.912;2023-05-23T07:55:18;16.00;99.90
18597;DHT22;9428;50.950;6.912;2023-05-23T07:58:06;15.90;99.90
18597;DHT22;9428;50.950;6.912;2023-05-23T08:00:53;15.80;99.90
18597;DHT22;9428;50.950;6.912;2023-05-23T08:03:40;15.70;99.90
18597;DHT22;9428;50.950;6.912;2023-05-23T08:06:27;15.60;99.90
18597;DHT22;9428;50.950;6.912;2023-05-23T08:09:15;15.70;99.90
18597;DHT22;9428;50.950;6.912;2023-05-23T08:12:04;15.80;99.90
18597;DHT22;9428;50.950;6.912;2023-05-23T08:14:51;15.80;99.90
18597;DHT22;9428;50.950;6.912;2023-05-23T08:17:38;15.70;99.90
18597;DHT22;9428;50.950;6.912;2023-05-23T08:20:25;15.90;99.90
18597;DHT22;9428;50.950;6.912;2023-05-23T08:23:15;15.70;99.90
18597;DHT22;9428;50.950;6.912;2023-05-23T08:26:03;15.80;99.90
18597;DHT22;9428;50.950;6.912;2023-05-23T08:28:52;15.80;99.90
18597;DHT22;9428;50.950;6.912;2023-05-23T08:31:39;15.90;99.90
18597;DHT22;9428;50.950;6.912;2023-05-23T08:34:27;15.80;99.90
18597;DHT22;9428;50.950;6.912;2023-05-23T08:37:14;16.00;99.90
18597;DHT22;9428;50.950;6.912;2023-05-23T08:40:01;15.80;99.90
18597;DHT22;9428;50.950;6.912;2023-05-23T08:42:49;15.80;99.90
18597;DHT22;9428;50.950;6.912;2023-05-23T08:45:38;15.80;99.90
18597;DHT22;9428;50.950;6.912;2023-05-23T08:48:27;15.90;99.90
18597;DHT22;9428;50.950;6.912;2023-05-23T08:51:16;16.00;99.90
18597;DHT22;9428;50.950;6.912;2023-05-23T08:54:05;15.70;99.90
18597;DHT22;9428;50.950;6.912;2023-05-23T08:56:54;15.60;99.90
18597;DHT22;9428;50.950;6.912;2023-05-23T08:59:41;15.60;99.90
18597;DHT22;9428;50.950;6.912;2023-05-23T09:02:30;15.70;99.90
18597;DHT22;9428;50.950;6.912;2023-05-23T09:05:18;15.70;99.90
18597;DHT22;9428;50.950;6.912;2023-05-23T09:08:06;15.60;99.90
18597;DHT22;9428;50.950;6.912;2023-05-23T09:10:53;15.70;99.90
18597;DHT22;9428;50.950;6.912;2023-05-23T09:13:41;15.80;99.90
18597;DHT22;9428;50.950;6.912;2023-05-23T09:16:31;15.70;99.90
18597;DHT22;9428;50.950;6.912;2023-05-23T09:19:20;15.80;99.90
18597;DHT22;9428;50.950;6.912;2023-05-23T09:22:07;15.50;99.90
18597;DHT22;9428;50.950;6.912;2023-05-23T09:24:55;16.20;99.90
18597;DHT22;9428;50.950;6.912;2023-05-23T09:27:43;16.00;99.90
18597;DHT22;9428;50.950;6.912;2023-05-23T09:30:33;15.30;99.90
18597;DHT22;9428;50.950;6.912;2023-05-23T09:33:20;15.90;99.90
18597;DHT22;9428;50.950;6.912;2023-05-23T09:36:09;15.10;99.90
18597;DHT22;9428;50.950;6.912;2023-05-23T09:38:56;15.20;99.90
18597;DHT22;9428;50.950;6.912;2023-05-23T09:41:48;15.10;99.90
18597;DHT22;9428;50.950;6.912;2023-05-23T09:44:40;15.10;99.90
18597;DHT22;9428;50.950;6.912;2023-05-23T09:47:28;15.10;99.90
18597;DHT22;9428;50.950;6.912;2023-05-23T09:50:15;15.10;99.90
18597;DHT22;9428;50.950;6.912;2023-05-23T09:53:04;15.10;99.90
18597;DHT22;9428;50.950;6.912;2023-05-23T09:55:52;15.00;99.90
18597;DHT22;9428;50.950;6.912;2023-05-23T09:58:42;15.50;99.90
18597;DHT22;9428;50.950;6.912;2023-05-23T10:01:31;15.60;99.90
18597;DHT22;9428;50.950;6.912;2023-05-23T10:04:21;15.10;99.90
18597;DHT22;9428;50.950;6.912;2023-05-23T10:07:12;15.20;99.90
18597;DHT22;9428;50.950;6.912;2023-05-23T10:10:08;15.30;99.90
18597;DHT22;9428;50.950;6.912;2023-05-23T10:12:57;15.30;99.90
18597;DHT22;9428;50.950;6.912;2023-05-23T10:15:48;15.50;99.90
18597;DHT22;9428;50.950;6.912;2023-05-23T10:18:41;15.10;99.90
18597;DHT22;9428;50.950;6.912;2023-05-23T10:21:32;15.20;99.90
18597;DHT22;9428;50.950;6.912;2023-05-23T10:24:23;15.20;99.90
18597;DHT22;9428;50.950;6.912;2023-05-23T10:27:12;15.60;99.90
18597;DHT22;9428;50.950;6.912;2023-05-23T10:29:59;15.60;99.90
18597;DHT22;9428;50.950;6.912;2023-05-23T10:32:47;15.30;99.90
18597;DHT22;9428;50.950;6.912;2023-05-23T10:35:44;15.10;99.90
18597;DHT22;9428;50.950;6.912;2023-05-23T10:38:36;15.00;99.90
18597;DHT22;9428;50.950;6.912;2023-05-23T10:41:28;15.10;99.90
18597;DHT22;9428;50.950;6.912;2023-05-23T10:44:24;15.10;99.90
18597;DHT22;9428;50.950;6.912;2023-05-23T10:47:25;15.10;99.90
18597;DHT22;9428;50.950;6.912;2023-05-23T10:50:14;15.00;99.90
18597;DHT22;9428;50.950;6.912;2023-05-23T10:53:03;14.90;99.90
18597;DHT22;9428;50.950;6.912;2023-05-23T10:55:50;15.00;99.90
18597;DHT22;9428;50.950;6.912;2023-05-23T10:58:38;15.70;99.90
18597;DHT22;9428;50.950;6.912;2023-05-23T11:01:27;14.90;99.90
18597;DHT22;9428;50.950;6.912;2023-05-23T11:04:14;14.80;99.90
18597;DHT22;9428;50.950;6.912;2023-05-23T11:07:01;14.80;99.90
18597;DHT22;9428;50.950;6.912;2023-05-23T11:10:09;14.90;99.90
18597;DHT22;9428;50.950;6.912;2023-05-23T11:13:05;14.80;99.90
18597;DHT22;9428;50.950;6.912;2023-05-23T11:15:53;14.90;99.90
18597;DHT22;9428;50.950;6.912;2023-05-23T11:18:41;15.00;99.90
18597;DHT22;9428;50.950;6.912;2023-05-23T11:21:30;14.90;99.90
18597;DHT22;9428;50.950;6.912;2023-05-23T11:24:17;15.00;99.90
18597;DHT22;9428;50.950;6.912;2023-05-23T11:27:11;15.10;99.90
18597;DHT22;9428;50.950;6.912;2023-05-23T11:30:00;15.00;99.90
18597;DHT22;9428;50.950;6.912;2023-05-23T11:32:50;14.90;99.90
18597;DHT22;9428;50.950;6.912;2023-05-23T11:35:39;15.10;99.90
18597;DHT22;9428;50.950;6.912;2023-05-23T11:38:26;15.10;99.90
18597;DHT22;9428;50.950;6.912;2023-05-23T11:41:14;15.30;99.90
18597;DHT22;9428;50.950;6.912;2023-05-23T11:44:10;15.40;99.90
18597;DHT22;9428;50.950;6.912;2023-05-23T11:47:01;15.60;99.90
18597;DHT22;9428;50.950;6.912;2023-05-23T11:49:48;15.80;99.90
18597;DHT22;9428;50.950;6.912;2023-05-23T11:52:44;15.80;99.90
18597;DHT22;9428;50.950;6.912;2023-05-23T11:55:38;15.80;99.90
18597;DHT22;9428;50.950;6.912;2023-05-23T11:58:28;16.10;99.90
18597;DHT22;9428;50.950;6.912;2023-05-23T12:01:16;15.40;99.90
18597;DHT22;9428;50.950;6.912;2023-05-23T12:04:08;15.90;99.90
18597;DHT22;9428;50.950;6.912;2023-05-23T12:06:57;16.00;99.90
18597;DHT22;9428;50.950;6.912;2023-05-23T12:09:46;15.80;99.90
18597;DHT22;9428;50.950;6.912;2023-05-23T12:12:42;16.10;99.90
18597;DHT22;9428;50.950;6.912;2023-05-23T12:15:30;16.10;99.90
18597;DHT22;9428;50.950;6.912;2023-05-23T12:18:18;16.10;99.90
18597;DHT22;9428;50.950;6.912;2023-05-23T12:21:06;16.30;99.90
18597;DHT22;9428;50.950;6.912;2023-05-23T12:23:53;16.40;99.90
18597;DHT22;9428;50.950;6.912;2023-05-23T12:26:48;16.40;99.90
18597;DHT22;9428;50.950;6.912;2023-05-23T12:29:35;16.40;99.90
18597;DHT22;9428;50.950;6.912;2023-05-23T12:32:24;16.20;99.90
18597;DHT22;9428;50.950;6.912;2023-05-23T12:35:12;16.10;99.90
18597;DHT22;9428;50.950;6.912;2023-05-23T12:38:00;16.30;99.90
18597;DHT22;9428;50.950;6.912;2023-05-23T12:41:07;16.50;99.90
18597;DHT22;9428;50.950;6.912;2023-05-23T12:43:55;16.50;99.90
18597;DHT22;9428;50.950;6.912;2023-05-23T12:46:43;16.90;99.90
18597;DHT22;9428;50.950;6.912;2023-05-23T12:49:30;16.60;99.90
18597;DHT22;9428;50.950;6.912;2023-05-23T12:52:17;16.40;99.90
18597;DHT22;9428;50.950;6.912;2023-05-23T12:55:05;16.20;99.90
18597;DHT22;9428;50.950;6.912;2023-05-23T12:57:53;16.10;99.90
18597;DHT22;9428;50.950;6.912;2023-05-23T13:00:42;16.30;99.90
18597;DHT22;9428;50.950;6.912;2023-05-23T13:03:30;16.00;99.90
18597;DHT22;9428;50.950;6.912;2023-05-23T13:06:17;16.30;99.90
18597;DHT22;9428;50.950;6.912;2023-05-23T13:09:04;16.30;99.90
18597;DHT22;9428;50.950;6.912;2023-05-23T13:11:52;16.30;99.90
18597;DHT22;9428;50.950;6.912;2023-05-23T13:14:40;16.60;99.90
18597;DHT22;9428;50.950;6.912;2023-05-23T13:17:28;16.60;99.90
18597;DHT22;9428;50.950;6.912;2023-05-23T13:20:16;16.60;99.90
18597;DHT22;9428;50.950;6.912;2023-05-23T13:23:03;16.40;99.90
18597;DHT22;9428;50.950;6.912;2023-05-23T13:25:51;16.40;99.90
18597;DHT22;9428;50.950;6.912;2023-05-23T13:28:39;16.50;99.90
18597;DHT22;9428;50.950;6.912;2023-05-23T13:31:26;16.50;99.90
18597;DHT22;9428;50.950;6.912;2023-05-23T13:34:15;16.70;99.90
18597;DHT22;9428;50.950;6.912;2023-05-23T13:37:02;16.70;99.90
18597;DHT22;9428;50.950;6.912;2023-05-23T13:39:50;16.70;99.90
18597;DHT22;9428;50.950;6.912;2023-05-23T13:42:38;16.60;99.90
18597;DHT22;9428;50.950;6.912;2023-05-23T13:45:25;16.50;99.90
18597;DHT22;9428;50.950;6.912;2023-05-23T13:48:12;16.50;99.90
18597;DHT22;9428;50.950;6.912;2023-05-23T13:51:01;16.50;99.90
18597;DHT22;9428;50.950;6.912;2023-05-23T13:53:49;16.70;99.90
18597;DHT22;9428;50.950;6.912;2023-05-23T13:56:39;16.80;99.90
18597;DHT22;9428;50.950;6.912;2023-05-23T13:59:27;17.00;99.90
18597;DHT22;9428;50.950;6.912;2023-05-23T14:02:14;16.90;99.90
18597;DHT22;9428;50.950;6.912;2023-05-23T14:05:01;16.80;99.90
18597;DHT22;9428;50.950;6.912;2023-05-23T14:07:50;17.00;99.90
18597;DHT22;9428;50.950;6.912;2023-05-23T14:10:38;17.10;99.90
18597;DHT22;9428;50.950;6.912;2023-05-23T14:13:25;17.20;99.90
18597;DHT22;9428;50.950;6.912;2023-05-23T14:16:13;16.70;99.90
18597;DHT22;9428;50.950;6.912;2023-05-23T14:19:00;16.70;99.90
18597;DHT22;9428;50.950;6.912;2023-05-23T14:21:47;16.50;99.90
18597;DHT22;9428;50.950;6.912;2023-05-23T14:24:36;16.50;99.90
18597;DHT22;9428;50.950;6.912;2023-05-23T14:27:24;16.70;99.90
18597;DHT22;9428;50.950;6.912;2023-05-23T14:30:11;16.60;99.90
18597;DHT22;9428;50.950;6.912;2023-05-23T14:32:59;16.70;99.90
18597;DHT22;9428;50.950;6.912;2023-05-23T14:35:48;16.80;99.90
18597;DHT22;9428;50.950;6.912;2023-05-23T14:38:35;16.80;99.90
18597;DHT22;9428;50.950;6.912;2023-05-23T14:41:25;17.00;99.90
18597;DHT22;9428;50.950;6.912;2023-05-23T14:44:13;16.90;99.90
18597;DHT22;9428;50.950;6.912;2023-05-23T14:47:01;16.80;99.90
18597;DHT22;9428;50.950;6.912;2023-05-23T14:49:48;16.80;99.90
18597;DHT22;9428;50.950;6.912;2023-05-23T14:52:35;16.80;99.90
18597;DHT22;9428;50.950;6.912;2023-05-23T14:55:22;16.80;99.90
18597;DHT22;9428;50.950;6.912;2023-05-23T14:58:11;16.80;99.90
18597;DHT22;9428;50.950;6.912;2023-05-23T15:00:58;17.20;99.90
18597;DHT22;9428;50.950;6.912;2023-05-23T15:03:45;17.30;99.90
18597;DHT22;9428;50.950;6.912;2023-05-23T15:06:33;17.30;99.90
18597;DHT22;9428;50.950;6.912;2023-05-23T15:09:20;17.20;99.90
18597;DHT22;9428;50.950;6.912;2023-05-23T15:12:07;17.20;99.90
18597;DHT22;9428;50.950;6.912;2023-05-23T15:14:56;16.90;99.90
18597;DHT22;9428;50.950;6.912;2023-05-23T15:17:49;16.90;99.90
18597;DHT22;9428;50.950;6.912;2023-05-23T15:20:36;16.90;99.90
18597;DHT22;9428;50.950;6.912;2023-05-23T15:23:23;16.90;99.90
18597;DHT22;9428;50.950;6.912;2023-05-23T15:26:11;17.00;99.90
18597;DHT22;9428;50.950;6.912;2023-05-23T15:28:58;17.10;99.90
18597;DHT22;9428;50.950;6.912;2023-05-23T15:31:47;17.40;99.90
18597;DHT22;9428;50.950;6.912;2023-05-23T15:34:34;17.60;99.90
18597;DHT22;9428;50.950;6.912;2023-05-23T15:37:21;18.20;99.90
18597;DHT22;9428;50.950;6.912;2023-05-23T15:40:10;17.40;99.90
18597;DHT22;9428;50.950;6.912;2023-05-23T15:42:57;17.50;99.90
18597;DHT22;9428;50.950;6.912;2023-05-23T15:45:44;17.40;99.90
18597;DHT22;9428;50.950;6.912;2023-05-23T15:48:33;17.40;99.90
18597;DHT22;9428;50.950;6.912;2023-05-23T15:51:20;17.70;99.90
18597;DHT22;9428;50.950;6.912;2023-05-23T15:54:08;17.60;99.90
18597;DHT22;9428;50.950;6.912;2023-05-23T15:56:55;17.60;99.90
18597;DHT22;9428;50.950;6.912;2023-05-23T15:59:42;17.40;99.90
18597;DHT22;9428;50.950;6.912;2023-05-23T16:02:29;17.20;99.90
18597;DHT22;9428;50.950;6.912;2023-05-23T16:05:18;17.10;99.90
18597;DHT22;9428;50.950;6.912;2023-05-23T16:08:05;17.00;99.90
18597;DHT22;9428;50.950;6.912;2023-05-23T16:10:52;17.00;99.90
18597;DHT22;9428;50.950;6.912;2023-05-23T16:13:40;17.20;99.90
18597;DHT22;9428;50.950;6.912;2023-05-23T16:16:27;17.30;99.90
18597;DHT22;9428;50.950;6.912;2023-05-23T16:19:14;17.30;99.90
18597;DHT22;9428;50.950;6.912;2023-05-23T16:22:03;17.20;99.90
18597;DHT22;9428;50.950;6.912;2023-05-23T16:24:50;17.10;99.90
18597;DHT22;9428;50.950;6.912;2023-05-23T16:27:38;16.90;99.90
18597;DHT22;9428;50.950;6.912;2023-05-23T16:30:25;17.00;99.90
18597;DHT22;9428;50.950;6.912;2023-05-23T16:33:12;16.80;99.90
18597;DHT22;9428;50.950;6.912;2023-05-23T16:36:00;16.90;99.90
18597;DHT22;9428;50.950;6.912;2023-05-23T16:38:48;17.10;99.90
18597;DHT22;9428;50.950;6.912;2023-05-23T16:41:36;17.00;99.90
18597;DHT22;9428;50.950;6.912;2023-05-23T16:44:23;16.90;99.90
18597;DHT22;9428;50.950;6.912;2023-05-23T16:47:10;16.70;99.90
18597;DHT22;9428;50.950;6.912;2023-05-23T16:49:57;16.60;99.90
18597;DHT22;9428;50.950;6.912;2023-05-23T16:52:45;16.60;99.90
18597;DHT22;9428;50.950;6.912;2023-05-23T16:55:33;16.60;99.90
18597;DHT22;9428;50.950;6.912;2023-05-23T16:58:20;16.60;99.90
18597;DHT22;9428;50.950;6.912;2023-05-23T17:01:08;16.70;99.90
18597;DHT22;9428;50.950;6.912;2023-05-23T17:03:55;16.60;99.90
18597;DHT22;9428;50.950;6.912;2023-05-23T17:06:42;16.50;99.90
18597;DHT22;9428;50.950;6.912;2023-05-23T17:09:29;17.10;99.90
18597;DHT22;9428;50.950;6.912;2023-05-23T17:12:18;16.70;99.90
18597;DHT22;9428;50.950;6.912;2023-05-23T17:15:06;16.60;99.90
18597;DHT22;9428;50.950;6.912;2023-05-23T17:17:53;16.60;99.90
18597;DHT22;9428;50.950;6.912;2023-05-23T17:20:41;16.60;99.90
18597;DHT22;9428;50.950;6.912;2023-05-23T17:23:28;16.60;99.90
18597;DHT22;9428;50.950;6.912;2023-05-23T17:26:15;16.60;99.90
18597;DHT22;9428;50.950;6.912;2023-05-23T17:29:04;16.50;99.90
18597;DHT22;9428;50.950;6.912;2023-05-23T17:31:54;16.60;99.90
18597;DHT22;9428;50.950;6.912;2023-05-23T17:34:42;16.40;99.90
18597;DHT22;9428;50.950;6.912;2023-05-23T17:37:29;16.40;99.90
18597;DHT22;9428;50.950;6.912;2023-05-23T17:40:17;16.20;99.90
18597;DHT22;9428;50.950;6.912;2023-05-23T17:43:04;16.20;99.90
18597;DHT22;9428;50.950;6.912;2023-05-23T17:45:53;16.40;99.90
18597;DHT22;9428;50.950;6.912;2023-05-23T17:48:40;16.70;99.90
18597;DHT22;9428;50.950;6.912;2023-05-23T17:51:27;16.40;99.90
18597;DHT22;9428;50.950;6.912;2023-05-23T17:54:15;16.20;99.90
18597;DHT22;9428;50.950;6.912;2023-05-23T17:57:02;16.20;99.90
18597;DHT22;9428;50.950;6.912;2023-05-23T17:59:49;15.70;99.90